General Aviation Weather

Text Reports

Enter one or more of the following location identifiers separated by a space:

Zip Code, Four-Character ICAO or Three-Character IATA airport codes.

METAR - Aviation Routine Weather Report
KVER - Boonville, Missouri
Updated at 8:55 AM GMT on September 04, 2015 (3:55 AM CDT):
METAR KVER 040855Z AUTO 00000KT 10SM CLR 22/22 A2996 RMK AO2 T02230215
TAF - Terminal Area Forecast
KVER - Boonville, Missouri
Updated at 8:55 AM GMT on September 04, 2015 (3:55 AM CDT):
No TAF is currently available for this location.
Decoded:
No decoded TAF is available.
PIREP - Pilot Weather Report
KVER - Boonville, Missouri
Updated at 8:55 AM GMT on September 04, 2015 (3:55 AM CDT):
No PIREP is currently available for this location.
AIRMET - Airmens Meteorological Information
KVER - Boonville, Missouri
Updated at 8:55 AM GMT on September 04, 2015 (3:55 AM CDT):
No AIRMET is currently available for this location.
SIGMET - Significant Meteorological Information
KVER - Boonville, Missouri
Updated at 8:55 AM GMT on September 04, 2015 (3:55 AM CDT):
No SIGMET is currently available for this location.
NOTAM - Notice to Airmen
KVER - Boonville, Missouri
Updated at 8:55 AM GMT on September 04, 2015 (3:55 AM CDT):
No NOTAM is currently available for this location.
Forecast Area
KVER - Boonville, Missouri
Updated at 8:55 AM GMT on September 04, 2015 (3:55 AM CDT):
No NOTAM is currently available for this location.
Aviation Weather Maps